Time;durP1;ratioP1;P1;durP2;ratioP2;P2;SDS_P1;SDS_P2;PMS_P1;PMS_P2;Temp;Humidity;BMP_temperature;BMP_pressure;BME280_temperature;BME280_humidity;BME280_pressure;Samples;Min_cycle;Max_cycle;Signal;HPM_P1;HPM_P2
2023/06/17 00:00:37;;;;;;;6.20;3.55;;;;;;;;;;10556850;28;20149;-75
2023/06/17 00:05:44;;;;;;;8.90;3.38;;;;;;;;;;10554847;28;20151;-76
2023/06/17 00:11:02;;;;;;;7.22;3.83;;;;;;;;;;10565013;28;20146;-76
2023/06/17 00:16:20;;;;;;;4.35;2.83;;;;;;;;;;10557106;28;20139;-75
2023/06/17 00:21:34;;;;;;;4.68;2.50;;;;;;;;;;10553420;28;22007;-76
2023/06/17 00:26:43;;;;;;;6.88;3.85;;;;;;;;;;10549797;28;20060;-76
2023/06/17 00:31:48;;;;;;;7.55;3.83;;;;;;;;;;10553395;28;20051;-75
2023/06/17 00:36:53;;;;;;;7.75;4.25;;;;;;;;;;10551558;28;20064;-75
2023/06/17 00:42:02;;;;;;;5.03;2.55;;;;;;;;;;10556697;28;20078;-75
2023/06/17 00:47:11;;;;;;;8.60;4.18;;;;;;;;;;10558012;28;20047;-76
2023/06/17 00:52:31;;;;;;;9.02;4.05;;;;;;;;;;10547708;28;20677;-76
2023/06/17 00:57:53;;;;;;;7.68;3.80;;;;;;;;;;10556376;28;20075;-76
2023/06/17 01:03:09;;;;;;;8.32;4.28;;;;;;;;;;10552486;28;20036;-76
2023/06/17 01:08:29;;;;;;;6.63;3.97;;;;;;;;;;10552903;28;20048;-75
2023/06/17 01:13:43;;;;;;;10.35;4.78;;;;;;;;;;10569586;28;20123;-77
2023/06/17 01:19:18;;;;;;;4.57;2.80;;;;;;;;;;10551275;28;20742;-76
2023/06/17 01:24:38;;;;;;;4.57;2.70;;;;;;;;;;10554158;28;20040;-76
2023/06/17 01:29:53;;;;;;;9.30;4.15;;;;;;;;;;10547770;28;20044;-76
2023/06/17 01:35:09;;;;;;;8.68;4.10;;;;;;;;;;10556579;28;20113;-76
2023/06/17 01:40:23;;;;;;;7.72;4.35;;;;;;;;;;10549198;28;20040;-75
2023/06/17 01:45:31;;;;;;;8.60;4.22;;;;;;;;;;10545781;28;20082;-75
2023/06/17 01:50:37;;;;;;;5.40;2.85;;;;;;;;;;10533964;28;20044;-75
2023/06/17 01:55:56;;;;;;;5.63;2.83;;;;;;;;;;10555041;28;20123;-75
2023/06/17 02:01:03;;;;;;;8.15;4.30;;;;;;;;;;10554756;28;20055;-75
2023/06/17 02:06:10;;;;;;;6.30;3.03;;;;;;;;;;10559657;28;20036;-76
2023/06/17 02:11:15;;;;;;;6.93;3.83;;;;;;;;;;10552733;28;20040;-75
2023/06/17 02:16:25;;;;;;;4.30;2.50;;;;;;;;;;10551807;28;20048;-75
2023/06/17 02:21:33;;;;;;;4.00;2.38;;;;;;;;;;10556429;28;20447;-75
2023/06/17 02:26:49;;;;;;;4.55;2.15;;;;;;;;;;10533104;28;20043;-76
2023/06/17 02:31:59;;;;;;;3.92;2.33;;;;;;;;;;10553066;28;20032;-75
2023/06/17 02:37:07;;;;;;;7.20;4.07;;;;;;;;;;10532797;28;20062;-76
2023/06/17 02:42:11;;;;;;;6.72;3.42;;;;;;;;;;10551035;28;20036;-76
2023/06/17 02:47:25;;;;;;;3.40;2.20;;;;;;;;;;10534794;28;20130;-76
2023/06/17 02:52:34;;;;;;;4.82;2.42;;;;;;;;;;10546409;28;20055;-76
2023/06/17 02:57:48;;;;;;;6.85;3.92;;;;;;;;;;10549480;28;20056;-75
2023/06/17 03:03:06;;;;;;;6.30;3.58;;;;;;;;;;10552770;28;20039;-75
2023/06/17 03:08:18;;;;;;;8.40;4.07;;;;;;;;;;10531843;28;20218;-75
2023/06/17 03:13:22;;;;;;;5.70;3.22;;;;;;;;;;10548399;28;20055;-75
2023/06/17 03:18:39;;;;;;;5.00;3.03;;;;;;;;;;10551497;28;20071;-75
2023/06/17 03:23:58;;;;;;;6.72;3.50;;;;;;;;;;10549685;28;20044;-75
2023/06/17 03:29:08;;;;;;;8.02;3.67;;;;;;;;;;10549331;28;20055;-76
2023/06/17 03:34:17;;;;;;;7.07;4.00;;;;;;;;;;10528987;28;20044;-74
2023/06/17 03:39:24;;;;;;;8.45;3.90;;;;;;;;;;10567529;28;20056;-74
2023/06/17 03:44:28;;;;;;;4.50;2.72;;;;;;;;;;10533511;28;20040;-74
2023/06/17 03:49:39;;;;;;;7.80;2.78;;;;;;;;;;10554008;28;20104;-74
2023/06/17 03:54:44;;;;;;;6.03;3.65;;;;;;;;;;10547799;28;20047;-77
2023/06/17 03:59:48;;;;;;;8.45;4.03;;;;;;;;;;10550784;28;20051;-75
2023/06/17 04:04:56;;;;;;;7.40;3.78;;;;;;;;;;10556777;28;20058;-77
2023/06/17 04:10:03;;;;;;;8.55;4.38;;;;;;;;;;10534736;28;20036;-75
2023/06/17 04:15:13;;;;;;;6.57;2.97;;;;;;;;;;10557425;28;20040;-75
2023/06/17 04:20:19;;;;;;;8.38;3.75;;;;;;;;;;10552540;28;20036;-75
2023/06/17 04:25:25;;;;;;;7.28;3.78;;;;;;;;;;10552026;28;20032;-75
2023/06/17 04:30:37;;;;;;;5.93;3.72;;;;;;;;;;10556631;28;20113;-75
2023/06/17 04:35:44;;;;;;;8.85;4.28;;;;;;;;;;10551538;28;20341;-76
2023/06/17 04:40:53;;;;;;;6.60;3.40;;;;;;;;;;10559905;28;20097;-74
2023/06/17 04:46:02;;;;;;;6.93;3.30;;;;;;;;;;10561769;28;20043;-74
2023/06/17 04:51:12;;;;;;;9.50;4.43;;;;;;;;;;10540663;28;20454;-74
2023/06/17 04:56:20;;;;;;;7.90;3.97;;;;;;;;;;10556718;28;20052;-76
2023/06/17 05:01:25;;;;;;;6.60;4.10;;;;;;;;;;10523921;28;20072;-76
2023/06/17 05:06:32;;;;;;;9.13;4.13;;;;;;;;;;10557031;28;20050;-74
2023/06/17 05:11:38;;;;;;;6.35;3.58;;;;;;;;;;10554919;28;20105;-75
2023/06/17 05:16:47;;;;;;;8.07;3.90;;;;;;;;;;10554048;28;20044;-74
2023/06/17 05:21:58;;;;;;;8.45;3.65;;;;;;;;;;10554046;28;20050;-74
2023/06/17 05:27:08;;;;;;;6.57;3.85;;;;;;;;;;10553601;28;20047;-76
2023/06/17 05:32:12;;;;;;;10.30;3.88;;;;;;;;;;10533179;28;20115;-76
2023/06/17 05:37:21;;;;;;;7.18;3.97;;;;;;;;;;10556143;28;20418;-76
2023/06/17 05:42:32;;;;;;;7.88;4.10;;;;;;;;;;10551986;28;20071;-76
2023/06/17 05:47:42;;;;;;;6.43;3.22;;;;;;;;;;10554428;28;20051;-77
2023/06/17 05:52:56;;;;;;;6.15;3.42;;;;;;;;;;10533234;28;20123;-77
2023/06/17 05:58:03;;;;;;;7.13;3.50;;;;;;;;;;10553023;28;20048;-77
2023/06/17 06:03:12;;;;;;;6.97;4.03;;;;;;;;;;10548544;28;20040;-76
2023/06/17 06:08:33;;;;;;;8.82;4.18;;;;;;;;;;10554693;28;20071;-76
2023/06/17 06:13:40;;;;;;;7.60;4.05;;;;;;;;;;10538682;28;20036;-76
2023/06/17 06:18:50;;;;;;;7.63;3.67;;;;;;;;;;10553796;28;20063;-76
2023/06/17 06:24:05;;;;;;;8.07;4.15;;;;;;;;;;10533256;28;20032;-77
2023/06/17 06:29:13;;;;;;;7.90;4.10;;;;;;;;;;10548666;28;20067;-76
2023/06/17 06:34:21;;;;;;;8.77;4.10;;;;;;;;;;10543125;28;20138;-75
2023/06/17 06:39:31;;;;;;;9.02;4.05;;;;;;;;;;10549520;28;20136;-74
2023/06/17 06:44:34;;;;;;;7.60;4.25;;;;;;;;;;10546723;28;20082;-75
2023/06/17 06:49:39;;;;;;;4.32;2.50;;;;;;;;;;10525613;28;20039;-75
2023/06/17 06:54:44;;;;;;;7.07;3.55;;;;;;;;;;10550733;28;20047;-77
2023/06/17 06:59:48;;;;;;;9.48;4.43;;;;;;;;;;10533663;28;20227;-75
2023/06/17 07:04:55;;;;;;;9.43;4.15;;;;;;;;;;10536599;28;20123;-77
2023/06/17 07:10:04;;;;;;;7.60;3.75;;;;;;;;;;10550939;28;20055;-76
2023/06/17 07:15:29;;;;;;;7.65;3.92;;;;;;;;;;10530172;28;20040;-76
2023/06/17 07:20:41;;;;;;;7.72;4.28;;;;;;;;;;10551170;28;20063;-76
2023/06/17 07:25:55;;;;;;;9.98;3.78;;;;;;;;;;10536099;28;20060;-75
2023/06/17 07:31:20;;;;;;;9.23;3.80;;;;;;;;;;10546586;28;20051;-75
2023/06/17 07:36:33;;;;;;;7.13;3.78;;;;;;;;;;10557459;28;20138;-76
2023/06/17 07:41:44;;;;;;;6.32;3.40;;;;;;;;;;10556342;28;20428;-76
2023/06/17 07:46:54;;;;;;;6.55;3.50;;;;;;;;;;10537857;28;20047;-76
2023/06/17 07:52:01;;;;;;;7.13;3.70;;;;;;;;;;10537952;28;20077;-75
2023/06/17 07:57:24;;;;;;;5.97;3.60;;;;;;;;;;10541086;28;20044;-75
2023/06/17 08:02:29;;;;;;;5.68;3.70;;;;;;;;;;10558330;28;20054;-76
2023/06/17 08:07:35;;;;;;;6.28;3.70;;;;;;;;;;10530739;28;20048;-74
2023/06/17 08:12:44;;;;;;;5.05;3.75;;;;;;;;;;10552704;28;20151;-76
2023/06/17 08:17:53;;;;;;;5.28;4.00;;;;;;;;;;10549986;28;20074;-77
2023/06/17 08:23:00;;;;;;;6.38;4.25;;;;;;;;;;10537444;28;20565;-77
2023/06/17 08:28:09;;;;;;;6.22;4.47;;;;;;;;;;10550275;28;20085;-77
2023/06/17 08:33:18;;;;;;;5.10;3.70;;;;;;;;;;10533169;28;20040;-76
2023/06/17 08:38:24;;;;;;;6.68;4.25;;;;;;;;;;10537972;28;20047;-77
2023/06/17 08:43:40;;;;;;;5.72;4.25;;;;;;;;;;10534320;28;20066;-76
2023/06/17 08:48:44;;;;;;;6.85;4.63;;;;;;;;;;10533308;28;20384;-76
2023/06/17 08:54:00;;;;;;;7.15;4.50;;;;;;;;;;10538618;28;20036;-77
2023/06/17 08:59:12;;;;;;;5.03;4.50;;;;;;;;;;10535304;28;20048;-76
2023/06/17 09:04:29;;;;;;;5.65;4.50;;;;;;;;;;10552485;28;20038;-77
2023/06/17 09:14:58;;;;;;;8.93;4.57;;;;;;;;;;10551118;28;20024;-77
2023/06/17 09:20:12;;;;;;;6.38;4.80;;;;;;;;;;10557761;28;20044;-77
2023/06/17 09:25:20;;;;;;;5.38;3.85;;;;;;;;;;10551460;28;20064;-77
2023/06/17 09:30:28;;;;;;;7.32;4.85;;;;;;;;;;10554336;28;20694;-77
2023/06/17 09:35:42;;;;;;;7.90;4.70;;;;;;;;;;10545115;28;20044;-77
2023/06/17 09:40:51;;;;;;;5.40;4.60;;;;;;;;;;10532999;28;20040;-77
2023/06/17 09:46:04;;;;;;;7.05;4.53;;;;;;;;;;10551970;28;20041;-77
2023/06/17 09:51:12;;;;;;;4.75;3.78;;;;;;;;;;10566770;27;20449;-75
2023/06/17 09:56:18;;;;;;;8.20;4.82;;;;;;;;;;10547582;28;20028;-75
2023/06/17 10:01:41;;;;;;;5.63;4.60;;;;;;;;;;10547338;28;20043;-75
2023/06/17 10:07:01;;;;;;;6.45;4.40;;;;;;;;;;10536526;28;20301;-76
2023/06/17 10:12:08;;;;;;;6.32;4.47;;;;;;;;;;10523818;28;20083;-75
2023/06/17 10:17:19;;;;;;;6.72;4.15;;;;;;;;;;10529647;28;20079;-76
2023/06/17 10:22:26;;;;;;;7.57;5.00;;;;;;;;;;10552077;28;20047;-77
2023/06/17 10:27:31;;;;;;;5.90;5.10;;;;;;;;;;10544449;28;20032;-77
2023/06/17 10:32:40;;;;;;;9.30;5.55;;;;;;;;;;10546017;28;20056;-77
2023/06/17 10:37:54;;;;;;;5.43;4.57;;;;;;;;;;10547339;28;20059;-76
2023/06/17 10:43:00;;;;;;;5.65;4.90;;;;;;;;;;10549379;28;20170;-77
2023/06/17 10:48:20;;;;;;;6.43;4.82;;;;;;;;;;10551636;28;20071;-78
2023/06/17 10:53:40;;;;;;;6.63;5.40;;;;;;;;;;10551479;28;20059;-78
2023/06/17 10:59:02;;;;;;;6.10;4.68;;;;;;;;;;10544649;28;20044;-75
2023/06/17 11:04:23;;;;;;;6.97;4.80;;;;;;;;;;10555361;28;20040;-76
2023/06/17 11:09:42;;;;;;;8.50;4.87;;;;;;;;;;10517493;28;20048;-76
2023/06/17 11:15:15;;;;;;;7.53;5.75;;;;;;;;;;10554911;28;20139;-76
2023/06/17 11:20:36;;;;;;;7.28;5.50;;;;;;;;;;10554350;28;20460;-76
2023/06/17 11:25:54;;;;;;;7.00;5.15;;;;;;;;;;10550053;28;20043;-76
2023/06/17 11:31:13;;;;;;;8.32;5.57;;;;;;;;;;10556222;28;20130;-75
2023/06/17 11:36:29;;;;;;;7.60;5.43;;;;;;;;;;10540528;28;20050;-75
2023/06/17 11:41:41;;;;;;;7.60;5.10;;;;;;;;;;10548410;28;20107;-76
2023/06/17 11:46:49;;;;;;;7.38;4.80;;;;;;;;;;10553944;28;20054;-75
2023/06/17 11:52:09;;;;;;;5.78;4.88;;;;;;;;;;10535506;28;20057;-75
2023/06/17 11:57:22;;;;;;;7.05;5.22;;;;;;;;;;10558780;28;20051;-76
2023/06/17 12:02:28;;;;;;;6.90;4.75;;;;;;;;;;10535733;28;20041;-75
2023/06/17 12:07:39;;;;;;;8.63;5.15;;;;;;;;;;10536331;28;20044;-75
2023/06/17 12:12:56;;;;;;;8.90;5.13;;;;;;;;;;10550624;28;20043;-75
2023/06/17 12:18:20;;;;;;;8.27;5.35;;;;;;;;;;10535525;28;20545;-76
2023/06/17 12:23:30;;;;;;;7.65;4.63;;;;;;;;;;10527686;28;20131;-76
2023/06/17 12:28:45;;;;;;;7.68;4.40;;;;;;;;;;10556132;28;20053;-76
2023/06/17 12:33:50;;;;;;;8.20;4.70;;;;;;;;;;10549580;28;20048;-75
2023/06/17 12:39:05;;;;;;;9.50;5.15;;;;;;;;;;10550908;28;20104;-75
2023/06/17 12:44:19;;;;;;;9.10;4.10;;;;;;;;;;10549283;28;20444;-73
2023/06/17 12:49:25;;;;;;;7.20;4.80;;;;;;;;;;10555983;28;20427;-74
2023/06/17 12:54:30;;;;;;;6.88;4.40;;;;;;;;;;10553293;28;20044;-74
2023/06/17 12:59:53;;;;;;;7.88;4.57;;;;;;;;;;10533325;28;20135;-75
2023/06/17 13:05:00;;;;;;;7.15;4.50;;;;;;;;;;10550386;28;20686;-75
2023/06/17 13:10:12;;;;;;;6.15;4.20;;;;;;;;;;10529248;28;20047;-76
2023/06/17 13:15:19;;;;;;;7.47;4.88;;;;;;;;;;10549281;28;20108;-75
2023/06/17 13:20:25;;;;;;;6.68;4.43;;;;;;;;;;10536500;28;20469;-74
2023/06/17 13:25:33;;;;;;;7.70;4.40;;;;;;;;;;10548350;28;20036;-74
2023/06/17 13:30:50;;;;;;;6.25;4.38;;;;;;;;;;10550504;28;20044;-74
2023/06/17 13:35:56;;;;;;;7.97;4.05;;;;;;;;;;10527934;28;20052;-75
2023/06/17 13:41:02;;;;;;;6.97;4.30;;;;;;;;;;10552406;28;20048;-74
2023/06/17 13:46:09;;;;;;;7.72;4.35;;;;;;;;;;10544464;28;20043;-74
2023/06/17 13:51:17;;;;;;;6.47;4.35;;;;;;;;;;10550890;28;20427;-75
2023/06/17 13:56:27;;;;;;;9.90;4.75;;;;;;;;;;10549067;28;20052;-76
2023/06/17 14:01:35;;;;;;;8.45;4.70;;;;;;;;;;10550384;28;20111;-75
2023/06/17 14:06:46;;;;;;;9.25;4.70;;;;;;;;;;10543382;28;20063;-74
2023/06/17 14:12:05;;;;;;;6.60;4.20;;;;;;;;;;10545302;28;20044;-75
2023/06/17 14:17:11;;;;;;;6.20;3.92;;;;;;;;;;10547622;28;20040;-75
2023/06/17 14:22:15;;;;;;;6.82;4.28;;;;;;;;;;10510586;28;20040;-75
2023/06/17 14:27:27;;;;;;;8.02;4.28;;;;;;;;;;10548996;28;20048;-75
2023/06/17 14:32:36;;;;;;;8.15;4.18;;;;;;;;;;10547436;28;20052;-75
2023/06/17 14:37:50;;;;;;;7.70;4.97;;;;;;;;;;10549019;28;20040;-75
2023/06/17 14:42:55;;;;;;;7.90;4.35;;;;;;;;;;10548920;28;20044;-74
2023/06/17 14:48:13;;;;;;;6.72;4.10;;;;;;;;;;10553815;28;20071;-74
2023/06/17 14:53:29;;;;;;;8.82;4.20;;;;;;;;;;10547853;28;20032;-76
2023/06/17 14:58:41;;;;;;;6.20;3.67;;;;;;;;;;10549909;28;20056;-75
2023/06/17 15:03:55;;;;;;;6.32;3.97;;;;;;;;;;10554476;28;20046;-75
2023/06/17 15:09:24;;;;;;;8.77;4.53;;;;;;;;;;10555628;28;20052;-75
2023/06/17 15:14:40;;;;;;;7.68;4.10;;;;;;;;;;10545420;28;20076;-75
2023/06/17 15:19:54;;;;;;;7.35;4.18;;;;;;;;;;10552324;28;20063;-75
2023/06/17 15:25:03;;;;;;;6.90;4.05;;;;;;;;;;10538773;28;20051;-73
2023/06/17 15:30:09;;;;;;;8.88;4.60;;;;;;;;;;10566891;28;20051;-75
2023/06/17 15:35:18;;;;;;;7.80;4.30;;;;;;;;;;10531944;28;20131;-74
2023/06/17 15:40:23;;;;;;;7.90;4.18;;;;;;;;;;10541426;28;20063;-75
2023/06/17 15:45:47;;;;;;;8.60;4.75;;;;;;;;;;10542232;28;20048;-75
2023/06/17 15:50:58;;;;;;;8.60;4.30;;;;;;;;;;10552899;28;20066;-75
2023/06/17 15:56:09;;;;;;;6.75;3.92;;;;;;;;;;10552623;28;20044;-75
2023/06/17 16:01:16;;;;;;;7.40;4.20;;;;;;;;;;10550124;28;20059;-75
2023/06/17 16:06:26;;;;;;;9.73;4.72;;;;;;;;;;10532032;28;20036;-75
2023/06/17 16:11:32;;;;;;;7.13;4.43;;;;;;;;;;10535909;28;20048;-75
2023/06/17 16:16:38;;;;;;;8.35;4.57;;;;;;;;;;10556480;28;20096;-74
2023/06/17 16:21:47;;;;;;;7.88;4.53;;;;;;;;;;10558107;28;20086;-74
2023/06/17 16:26:51;;;;;;;8.27;4.65;;;;;;;;;;10532470;28;20039;-74
2023/06/17 16:31:56;;;;;;;9.32;5.07;;;;;;;;;;10537030;28;20222;-74
2023/06/17 16:37:03;;;;;;;13.45;4.72;;;;;;;;;;10554561;28;20088;-74
2023/06/17 16:42:18;;;;;;;9.82;4.45;;;;;;;;;;10556107;28;20044;-76
2023/06/17 16:47:26;;;;;;;9.05;4.95;;;;;;;;;;10562113;28;20040;-76
2023/06/17 16:52:34;;;;;;;8.13;4.50;;;;;;;;;;10548163;28;20150;-76
2023/06/17 16:57:45;;;;;;;9.57;5.13;;;;;;;;;;10533766;28;20051;-76
2023/06/17 17:02:50;;;;;;;8.65;4.43;;;;;;;;;;10550315;28;20048;-74
2023/06/17 17:07:57;;;;;;;7.72;4.10;;;;;;;;;;10529311;28;20047;-75
2023/06/17 17:13:03;;;;;;;7.30;4.45;;;;;;;;;;10548381;28;20078;-75
2023/06/17 17:18:13;;;;;;;7.30;4.07;;;;;;;;;;10551324;28;20055;-75
2023/06/17 17:23:27;;;;;;;7.07;4.18;;;;;;;;;;10548556;28;20046;-74
2023/06/17 17:28:33;;;;;;;8.73;3.92;;;;;;;;;;10552227;28;20069;-75
2023/06/17 17:39:12;;;;;;;7.40;4.20;;;;;;;;;;10552999;28;20072;-75
2023/06/17 17:44:27;;;;;;;7.30;4.18;;;;;;;;;;10555116;28;20080;-74
2023/06/17 17:49:38;;;;;;;10.60;4.63;;;;;;;;;;10550923;28;20039;-77
2023/06/17 18:00:04;;;;;;;;;;;;;;;;;;10531011;28;20067;-73
2023/06/17 18:05:10;;;;;;;9.45;5.50;;;;;;;;;;10555948;28;19927;-72
2023/06/17 18:10:33;;;;;;;8.23;3.97;;;;;;;;;;10550328;28;20070;-75
2023/06/17 18:15:38;;;;;;;8.75;4.38;;;;;;;;;;10526152;28;20048;-74
2023/06/17 18:20:48;;;;;;;9.35;4.55;;;;;;;;;;10547010;28;20056;-76
2023/06/17 18:25:52;;;;;;;6.70;4.05;;;;;;;;;;10551533;28;20318;-75
2023/06/17 18:31:00;;;;;;;9.48;4.97;;;;;;;;;;10549778;28;20112;-75
2023/06/17 18:36:05;;;;;;;12.55;5.03;;;;;;;;;;10550995;28;20054;-74
2023/06/17 18:41:09;;;;;;;10.77;5.43;;;;;;;;;;10531601;28;20120;-75
2023/06/17 18:46:23;;;;;;;11.25;5.35;;;;;;;;;;10537648;28;20044;-74
2023/06/17 18:51:36;;;;;;;10.52;5.47;;;;;;;;;;10532309;28;20830;-74
2023/06/17 18:56:45;;;;;;;13.35;5.95;;;;;;;;;;10551929;28;20350;-74
2023/06/17 19:07:17;;;;;;;12.77;6.50;;;;;;;;;;10547806;28;20157;-75
2023/06/17 19:12:20;;;;;;;10.82;5.20;;;;;;;;;;10552577;28;20052;-75
2023/06/17 19:17:28;;;;;;;12.05;5.53;;;;;;;;;;10552678;28;20032;-75
2023/06/17 19:22:35;;;;;;;25.55;11.00;;;;;;;;;;10554601;28;20054;-75
2023/06/17 19:27:40;;;;;;;13.55;6.30;;;;;;;;;;10552300;28;20031;-74
2023/06/17 19:32:46;;;;;;;11.90;6.78;;;;;;;;;;10551376;28;20040;-75
2023/06/17 19:37:58;;;;;;;12.43;6.68;;;;;;;;;;10535437;28;20036;-75
2023/06/17 19:43:06;;;;;;;9.88;5.30;;;;;;;;;;10534419;28;20505;-74
2023/06/17 19:48:14;;;;;;;19.10;7.85;;;;;;;;;;10551917;28;20039;-74
2023/06/17 19:53:21;;;;;;;13.80;7.07;;;;;;;;;;10553177;28;20531;-76
2023/06/17 19:58:37;;;;;;;14.80;5.90;;;;;;;;;;10552128;28;20036;-76
2023/06/17 20:03:40;;;;;;;;;;;;;;;;;;10538722;28;20048;-73
2023/06/17 20:08:55;;;;;;;13.93;6.78;;;;;;;;;;10558068;28;19983;-75
2023/06/17 20:14:02;;;;;;;10.82;6.18;;;;;;;;;;10557925;28;20078;-75
2023/06/17 20:19:11;;;;;;;12.23;6.10;;;;;;;;;;10554627;28;20457;-74
2023/06/17 20:24:25;;;;;;;13.35;6.22;;;;;;;;;;10550901;28;20028;-74
2023/06/17 20:29:34;;;;;;;12.18;5.85;;;;;;;;;;10551988;28;20052;-76
2023/06/17 20:34:37;;;;;;;13.23;6.40;;;;;;;;;;10557733;28;20100;-75
2023/06/17 20:39:50;;;;;;;13.77;7.00;;;;;;;;;;10533221;28;20543;-75
2023/06/17 20:45:03;;;;;;;12.88;6.00;;;;;;;;;;10551739;28;20109;-74
2023/06/17 20:50:10;;;;;;;11.43;5.43;;;;;;;;;;10554240;28;20202;-74
2023/06/17 20:55:18;;;;;;;10.93;5.70;;;;;;;;;;10552319;28;20048;-76
2023/06/17 21:00:24;;;;;;;9.57;5.38;;;;;;;;;;10542925;28;20052;-75
2023/06/17 21:05:30;;;;;;;10.23;5.13;;;;;;;;;;10557746;28;20078;-75
2023/06/17 21:10:41;;;;;;;8.95;4.65;;;;;;;;;;10558286;28;20139;-74
2023/06/17 21:15:48;;;;;;;11.48;4.90;;;;;;;;;;10529459;28;20051;-76
2023/06/17 21:20:59;;;;;;;11.47;5.53;;;;;;;;;;10531916;28;20201;-74
2023/06/17 21:26:04;;;;;;;13.98;5.63;;;;;;;;;;10547792;28;20055;-73
2023/06/17 21:31:17;;;;;;;12.45;5.50;;;;;;;;;;10545676;28;20031;-77
2023/06/17 21:36:23;;;;;;;12.30;5.70;;;;;;;;;;10535192;28;20048;-76
2023/06/17 21:41:30;;;;;;;14.57;6.28;;;;;;;;;;10553032;28;20079;-79
2023/06/17 21:46:47;;;;;;;12.27;6.55;;;;;;;;;;10557839;28;20044;-77
2023/06/17 21:51:56;;;;;;;11.45;5.70;;;;;;;;;;10546417;28;20322;-76
2023/06/17 21:57:01;;;;;;;12.38;5.70;;;;;;;;;;10532370;28;20720;-76
2023/06/17 22:02:07;;;;;;;15.00;6.85;;;;;;;;;;10532008;28;20062;-77
2023/06/17 22:07:14;;;;;;;13.20;6.53;;;;;;;;;;10548666;28;20041;-76
2023/06/17 22:12:22;;;;;;;17.25;6.95;;;;;;;;;;10547338;28;20040;-76
2023/06/17 22:17:41;;;;;;;12.18;6.47;;;;;;;;;;10547577;28;20089;-77
2023/06/17 22:22:45;;;;;;;11.63;6.15;;;;;;;;;;10549670;28;20040;-76
2023/06/17 22:27:58;;;;;;;14.02;7.82;;;;;;;;;;10527109;28;20101;-77
2023/06/17 22:33:16;;;;;;;16.88;8.00;;;;;;;;;;10542419;28;20075;-76
2023/06/17 22:43:51;;;;;;;19.85;9.02;;;;;;;;;;10544026;28;20089;-76
2023/06/17 22:49:01;;;;;;;16.35;7.40;;;;;;;;;;10533019;28;20056;-77
2023/06/17 22:54:14;;;;;;;22.33;8.80;;;;;;;;;;10530572;28;20048;-77
2023/06/17 22:59:26;;;;;;;21.20;7.82;;;;;;;;;;10549075;28;20052;-76
2023/06/17 23:04:39;;;;;;;13.63;7.25;;;;;;;;;;10544270;28;20060;-76
2023/06/17 23:09:46;;;;;;;18.17;8.55;;;;;;;;;;10556463;28;20051;-77
2023/06/17 23:15:00;;;;;;;18.98;8.02;;;;;;;;;;10539132;28;20052;-77
2023/06/17 23:20:06;;;;;;;19.67;8.50;;;;;;;;;;10554178;28;20047;-76
2023/06/17 23:25:11;;;;;;;16.42;7.85;;;;;;;;;;10553017;28;20428;-76
2023/06/17 23:30:31;;;;;;;16.40;7.78;;;;;;;;;;10554847;28;20036;-77
2023/06/17 23:35:35;;;;;;;21.48;9.40;;;;;;;;;;10552409;28;20067;-78
2023/06/17 23:40:55;;;;;;;18.95;10.35;;;;;;;;;;10550510;28;20036;-77
2023/06/17 23:46:15;;;;;;;21.70;9.38;;;;;;;;;;10535537;28;20040;-76
2023/06/17 23:56:45;;;;;;;20.60;9.50;;;;;;;;;;10560755;28;20085;-74
